createdAt,value
2022-10-20T00:00:28.394Z,101489.72
2022-10-20T00:02:55.817Z,101493.38
2022-10-20T00:05:23.182Z,101489.16
2022-10-20T00:07:50.509Z,101493.03
2022-10-20T00:10:17.934Z,101485.03
2022-10-20T00:12:45.251Z,101486.28
2022-10-20T00:15:14.579Z,101491.47
2022-10-20T00:17:41.859Z,101494.44
2022-10-20T00:20:09.822Z,101494.69
2022-10-20T00:22:37.534Z,101499.34
2022-10-20T00:25:05.383Z,101501.53
2022-10-20T00:27:32.701Z,101504.75
2022-10-20T00:30:00.053Z,101506.69
2022-10-20T00:32:27.613Z,101502.78
2022-10-20T00:34:54.962Z,101506.31
2022-10-20T00:37:22.576Z,101504.72
2022-10-20T00:39:49.856Z,101496.16
2022-10-20T00:42:19.115Z,101494.22
2022-10-20T00:44:50.840Z,101491.34
2022-10-20T00:47:21.050Z,101480.13
2022-10-20T00:49:50.005Z,101490.19
2022-10-20T00:52:20.899Z,101488.47
2022-10-20T00:54:49.796Z,101492.00
2022-10-20T00:57:17.579Z,101479.19
2022-10-20T00:59:45.385Z,101487.09
2022-10-20T01:02:15.108Z,101485.72
2022-10-20T01:04:43.283Z,101482.06
2022-10-20T01:07:10.642Z,101488.34
2022-10-20T01:09:39.148Z,101488.56
2022-10-20T01:12:23.155Z,101480.06
2022-10-20T01:15:02.891Z,101486.47
2022-10-20T01:18:05.239Z,101479.47
2022-10-20T01:20:50.690Z,101473.06
2022-10-20T01:23:26.900Z,101469.16
2022-10-20T01:26:24.235Z,101471.66
2022-10-20T01:29:03.453Z,101482.06
2022-10-20T01:32:04.403Z,101486.88
2022-10-20T01:34:50.600Z,101476.38
2022-10-20T01:37:34.434Z,101485.53
2022-10-20T01:40:43.642Z,101478.88
2022-10-20T01:43:14.293Z,101477.50
2022-10-20T01:45:45.729Z,101478.53
2022-10-20T01:48:16.667Z,101472.13
2022-10-20T01:50:47.452Z,101465.28
2022-10-20T01:53:18.018Z,101468.63
2022-10-20T01:55:45.464Z,101460.03
2022-10-20T01:59:03.286Z,101461.53
2022-10-20T02:01:58.904Z,101466.47
2022-10-20T02:04:46.552Z,101459.09
2022-10-20T02:07:25.477Z,101456.47
2022-10-20T02:09:58.322Z,101467.81
2022-10-20T02:12:29.754Z,101468.13
2022-10-20T02:14:58.129Z,101477.50
2022-10-20T02:17:25.528Z,101472.34
2022-10-20T02:19:53.775Z,101471.09
2022-10-20T02:22:22.643Z,101467.41
2022-10-20T02:24:53.603Z,101473.31
2022-10-20T02:27:37.438Z,101476.91
2022-10-20T02:30:11.003Z,101480.56
2022-10-20T02:32:41.651Z,101474.13
2022-10-20T02:35:14.718Z,101469.22
2022-10-20T02:37:42.071Z,101461.56
2022-10-20T02:40:10.193Z,101462.59
2022-10-20T02:42:38.768Z,101464.75
2022-10-20T02:45:07.221Z,101461.69
2022-10-20T02:47:35.585Z,101465.91
2022-10-20T02:50:03.263Z,101463.69
2022-10-20T02:52:30.610Z,101455.34
2022-10-20T02:54:57.979Z,101462.69
2022-10-20T02:57:25.504Z,101462.69
2022-10-20T02:59:53.226Z,101467.72
2022-10-20T03:02:20.577Z,101473.66
2022-10-20T03:04:50.405Z,101469.50
2022-10-20T03:07:17.759Z,101478.13
2022-10-20T03:09:45.071Z,101485.31
2022-10-20T03:12:12.346Z,101481.56
2022-10-20T03:14:40.178Z,101487.38
2022-10-20T03:17:07.487Z,101481.22
2022-10-20T03:19:34.808Z,101487.84
2022-10-20T03:22:02.170Z,101483.81
2022-10-20T03:24:29.400Z,101491.53
2022-10-20T03:26:56.731Z,101491.72
2022-10-20T03:29:24.261Z,101494.47
2022-10-20T03:31:51.547Z,101485.31
2022-10-20T03:34:18.890Z,101487.75
2022-10-20T03:36:46.274Z,101484.00
2022-10-20T03:39:13.607Z,101482.47
2022-10-20T03:41:41.048Z,101485.75
2022-10-20T03:44:10.302Z,101492.03
2022-10-20T03:46:37.643Z,101490.94
2022-10-20T03:49:05.065Z,101483.72
2022-10-20T03:51:32.420Z,101482.78
2022-10-20T03:53:59.723Z,101497.22
2022-10-20T03:56:27.086Z,101497.97
2022-10-20T03:58:54.407Z,101498.44
2022-10-20T04:01:27.090Z,101508.22
2022-10-20T04:03:54.423Z,101498.72
2022-10-20T04:06:21.806Z,101503.97
2022-10-20T04:08:49.145Z,101503.88
2022-10-20T04:11:16.524Z,101502.56
2022-10-20T04:13:43.869Z,101501.16
2022-10-20T04:16:11.175Z,101500.03
2022-10-20T04:18:38.719Z,101501.53
2022-10-20T04:21:06.234Z,101510.53
2022-10-20T04:23:33.593Z,101503.47
2022-10-20T04:26:07.952Z,101515.66
2022-10-20T04:28:35.271Z,101516.47
2022-10-20T04:31:02.656Z,101517.63
2022-10-20T04:33:30.063Z,101513.31
2022-10-20T04:36:03.838Z,101516.47
2022-10-20T04:38:31.980Z,101515.03
2022-10-20T04:41:04.050Z,101510.16
2022-10-20T04:43:33.218Z,101511.75
2022-10-20T04:46:07.024Z,101505.66
2022-10-20T04:48:37.569Z,101506.66
2022-10-20T04:51:11.702Z,101519.06
2022-10-20T04:53:39.451Z,101513.75
2022-10-20T04:56:08.571Z,101517.63
2022-10-20T04:58:36.171Z,101516.00
2022-10-20T05:01:06.675Z,101521.00
2022-10-20T05:03:35.454Z,101513.75
2022-10-20T05:06:12.931Z,101516.31
2022-10-20T05:08:41.569Z,101526.63
2022-10-20T05:11:10.449Z,101525.84
2022-10-20T05:13:38.303Z,101516.00
2022-10-20T05:16:06.408Z,101528.84
2022-10-20T05:18:34.514Z,101517.63
2022-10-20T05:21:19.780Z,101516.13
2022-10-20T05:23:47.133Z,101524.50
2022-10-20T05:26:16.961Z,101530.94
2022-10-20T05:28:46.745Z,101514.97
2022-10-20T05:31:15.471Z,101523.06
2022-10-20T05:33:48.304Z,101520.78
2022-10-20T05:36:21.555Z,101518.84
2022-10-20T05:38:50.869Z,101515.78
2022-10-20T05:41:21.415Z,101518.38
2022-10-20T05:43:50.465Z,101525.44
2022-10-20T05:46:18.640Z,101525.13
2022-10-20T05:48:46.977Z,101527.69
2022-10-20T05:51:19.903Z,101524.91
2022-10-20T05:53:48.098Z,101534.84
2022-10-20T05:56:18.350Z,101521.75
2022-10-20T05:58:47.319Z,101530.13
2022-10-20T06:01:19.140Z,101534.72
2022-10-20T06:03:53.935Z,101536.47
2022-10-20T06:06:23.499Z,101539.56
2022-10-20T06:08:51.181Z,101542.56
2022-10-20T06:11:19.512Z,101545.25
2022-10-20T06:13:48.656Z,101547.00
2022-10-20T06:16:24.759Z,101552.75
2022-10-20T06:18:52.814Z,101557.81
2022-10-20T06:21:33.950Z,101566.94
2022-10-20T06:24:04.681Z,101576.75
2022-10-20T06:26:35.494Z,101565.09
2022-10-20T06:29:05.055Z,101565.47
2022-10-20T06:31:41.558Z,101561.94
2022-10-20T06:34:13.403Z,101557.50
2022-10-20T06:36:42.181Z,101563.53
2022-10-20T06:39:13.518Z,101568.94
2022-10-20T06:41:40.882Z,101560.13
2022-10-20T06:44:18.298Z,101563.38
2022-10-20T06:46:45.914Z,101563.13
2022-10-20T06:49:14.161Z,101572.66
2022-10-20T06:51:41.717Z,101574.72
2022-10-20T06:54:09.489Z,101576.13
2022-10-20T06:56:37.281Z,101584.13
2022-10-20T06:59:04.641Z,101586.66
2022-10-20T07:01:34.298Z,101586.78
2022-10-20T07:04:05.513Z,101595.97
2022-10-20T07:06:35.281Z,101594.94
2022-10-20T07:09:08.378Z,101594.34
2022-10-20T07:11:36.254Z,101595.03
2022-10-20T07:14:04.416Z,101591.38
2022-10-20T07:16:34.996Z,101590.78
2022-10-20T07:19:03.787Z,101588.00
2022-10-20T07:21:35.705Z,101582.69
2022-10-20T07:24:06.704Z,101587.03
2022-10-20T07:26:36.313Z,101588.91
2022-10-20T07:29:04.397Z,101572.72
2022-10-20T07:31:45.822Z,101582.47
2022-10-20T07:34:31.546Z,101578.75
2022-10-20T07:36:59.302Z,101570.94
2022-10-20T07:39:27.093Z,101573.19
2022-10-20T07:41:54.665Z,101572.53
2022-10-20T07:44:22.265Z,101576.25
2022-10-20T07:46:50.178Z,101575.50
2022-10-20T07:52:05.967Z,101572.16
2022-10-20T07:54:33.323Z,101579.91
2022-10-20T07:57:00.638Z,101580.16
2022-10-20T07:59:29.454Z,101573.34
2022-10-20T08:01:59.589Z,101578.78
2022-10-20T08:04:27.801Z,101575.75
2022-10-20T08:06:55.162Z,101581.38
2022-10-20T08:09:22.494Z,101582.16
2022-10-20T08:11:52.866Z,101584.97
2022-10-20T08:14:23.451Z,101591.19
2022-10-20T08:16:51.942Z,101588.94
2022-10-20T08:19:25.096Z,101597.56
2022-10-20T08:21:52.647Z,101599.72
2022-10-20T08:24:20.247Z,101595.13
2022-10-20T08:26:47.620Z,101592.41
2022-10-20T08:29:14.973Z,101582.38
2022-10-20T08:31:43.951Z,101581.41
2022-10-20T08:34:11.547Z,101577.41
2022-10-20T08:36:38.922Z,101580.41
2022-10-20T08:39:06.632Z,101592.16
2022-10-20T08:44:32.522Z,101592.34
2022-10-20T08:47:02.180Z,101593.28
2022-10-20T08:49:32.829Z,101592.31
2022-10-20T08:52:01.118Z,101590.31
2022-10-20T08:54:28.558Z,101595.50
2022-10-20T08:56:55.906Z,101598.38
2022-10-20T08:59:30.189Z,101605.69
2022-10-20T09:01:57.762Z,101599.97
2022-10-20T09:04:47.724Z,101604.84
2022-10-20T09:07:36.202Z,101607.28
2022-10-20T09:10:35.138Z,101609.53
2022-10-20T09:13:26.337Z,101612.97
2022-10-20T09:15:58.956Z,101619.66
2022-10-20T09:18:26.544Z,101617.53
2022-10-20T09:20:57.704Z,101603.66
2022-10-20T09:23:47.619Z,101611.59
2022-10-20T09:26:37.565Z,101614.00
2022-10-20T09:29:20.755Z,101609.47
2022-10-20T09:31:50.039Z,101608.44
2022-10-20T09:34:27.955Z,101608.44
2022-10-20T09:37:04.391Z,101612.97
2022-10-20T09:39:55.458Z,101608.63
2022-10-20T09:42:29.263Z,101599.38
2022-10-20T09:45:00.495Z,101603.75
2022-10-20T09:47:28.963Z,101606.78
2022-10-20T09:50:06.074Z,101610.56
2022-10-20T09:52:47.369Z,101604.47
2022-10-20T09:55:23.526Z,101603.78
2022-10-20T09:57:51.238Z,101596.47
2022-10-20T10:00:38.534Z,101602.13
2022-10-20T10:03:22.996Z,101598.59
2022-10-20T10:05:54.177Z,101590.25
2022-10-20T10:08:26.905Z,101596.84
2022-10-20T10:11:05.348Z,101592.06
2022-10-20T10:13:40.597Z,101597.13
2022-10-20T10:16:10.997Z,101589.47
2022-10-20T10:18:39.097Z,101589.78
2022-10-20T10:21:09.940Z,101597.28
2022-10-20T10:24:12.774Z,101597.16
2022-10-20T10:26:45.373Z,101590.81
2022-10-20T10:29:19.398Z,101584.34
2022-10-20T10:31:57.948Z,101575.69
2022-10-20T10:35:02.819Z,101581.47
2022-10-20T10:37:49.132Z,101581.97
2022-10-20T10:40:20.233Z,101581.91
2022-10-20T10:43:06.377Z,101584.09
2022-10-20T10:45:52.538Z,101586.34
2022-10-20T10:48:50.481Z,101587.81
2022-10-20T10:51:35.458Z,101587.91
2022-10-20T10:54:11.724Z,101574.84
2022-10-20T10:56:54.217Z,101566.00
2022-10-20T10:59:29.926Z,101563.38
2022-10-20T11:02:15.327Z,101553.72
2022-10-20T11:05:02.744Z,101547.94
2022-10-20T11:07:39.375Z,101550.06
2022-10-20T11:10:30.533Z,101550.63
2022-10-20T11:13:26.040Z,101541.56
2022-10-20T11:16:13.463Z,101536.00
2022-10-20T11:19:02.275Z,101543.16
2022-10-20T11:21:40.724Z,101536.84
2022-10-20T11:24:13.124Z,101530.75
2022-10-20T11:26:49.656Z,101530.00
2022-10-20T11:29:31.393Z,101528.00
2022-10-20T11:32:23.964Z,101532.47
2022-10-20T11:35:06.451Z,101528.44
2022-10-20T11:38:07.347Z,101524.03
2022-10-20T11:40:46.884Z,101517.81
2022-10-20T11:43:27.405Z,101519.84
2022-10-20T11:46:04.655Z,101509.50
2022-10-20T11:48:46.278Z,101507.59
2022-10-20T11:51:31.759Z,101500.84
2022-10-20T11:54:23.893Z,101498.13
2022-10-20T11:57:12.323Z,101499.31
2022-10-20T12:00:03.462Z,101492.63
2022-10-20T12:02:49.164Z,101494.56
2022-10-20T12:05:35.167Z,101496.22
2022-10-20T12:08:29.797Z,101480.34
2022-10-20T12:11:30.020Z,101484.31
2022-10-20T12:14:06.903Z,101477.97
2022-10-20T12:16:52.393Z,101475.94
2022-10-20T12:19:25.624Z,101468.84
2022-10-20T12:22:06.084Z,101462.88
2022-10-20T12:24:35.503Z,101456.81
2022-10-20T12:27:08.927Z,101457.63
2022-10-20T12:29:36.300Z,101446.88
2022-10-20T12:32:24.081Z,101435.38
2022-10-20T12:34:57.436Z,101431.38
2022-10-20T12:37:24.812Z,101433.38
2022-10-20T12:39:54.808Z,101430.94
2022-10-20T12:42:28.086Z,101427.72
2022-10-20T12:45:02.496Z,101433.72
2022-10-20T12:47:32.377Z,101431.75
2022-10-20T12:50:02.714Z,101431.34
2022-10-20T12:52:34.066Z,101420.16
2022-10-20T12:55:18.518Z,101426.94
2022-10-20T12:57:46.903Z,101425.78
2022-10-20T13:00:20.173Z,101420.25
2022-10-20T13:03:31.539Z,101422.66
2022-10-20T13:05:59.481Z,101415.94
2022-10-20T13:08:30.989Z,101418.69
2022-10-20T13:11:33.457Z,101405.19
2022-10-20T13:14:07.772Z,101403.97
2022-10-20T13:16:35.380Z,101412.78
2022-10-20T13:19:08.375Z,101412.78
2022-10-20T13:21:35.887Z,101418.69
2022-10-20T13:24:11.721Z,101411.53
2022-10-20T13:26:48.800Z,101405.22
2022-10-20T13:29:22.597Z,101413.09
2022-10-20T13:34:52.936Z,101407.94
2022-10-20T13:37:35.321Z,101413.50
2022-10-20T13:40:25.854Z,101405.22
2022-10-20T13:43:05.492Z,101409.13
2022-10-20T13:46:01.538Z,101407.94
2022-10-20T13:48:49.899Z,101409.91
2022-10-20T13:51:23.315Z,101408.72
2022-10-20T13:53:55.414Z,101411.13
2022-10-20T13:56:45.748Z,101416.28
2022-10-20T13:59:18.909Z,101417.84
2022-10-20T14:01:49.315Z,101407.13
2022-10-20T14:04:35.435Z,101402.31
2022-10-20T14:07:09.966Z,101403.56
2022-10-20T14:09:40.591Z,101396.34
2022-10-20T14:12:23.709Z,101409.78
2022-10-20T14:15:01.487Z,101416.41
2022-10-20T14:17:29.249Z,101410.97
2022-10-20T14:20:19.388Z,101408.09
2022-10-20T14:22:47.858Z,101406.94
2022-10-20T14:25:15.824Z,101401.50
2022-10-20T14:27:43.429Z,101401.88
2022-10-20T14:30:18.621Z,101401.00
2022-10-20T14:32:47.924Z,101402.53
2022-10-20T14:35:32.827Z,101402.56
2022-10-20T14:38:08.636Z,101409.63
2022-10-20T14:40:37.993Z,101409.56
2022-10-20T14:43:21.448Z,101411.13
2022-10-20T14:45:54.405Z,101403.97
2022-10-20T14:48:22.256Z,101411.84
2022-10-20T14:50:50.175Z,101415.38
2022-10-20T14:53:25.174Z,101413.84
2022-10-20T14:55:53.011Z,101413.47
2022-10-20T14:58:54.134Z,101407.97
2022-10-20T15:01:23.657Z,101405.19
2022-10-20T15:04:04.397Z,101386.50
2022-10-20T15:06:32.107Z,101403.91
2022-10-20T15:09:00.351Z,101400.63
2022-10-20T15:11:28.352Z,101399.72
2022-10-20T15:13:59.052Z,101399.25
2022-10-20T15:16:45.593Z,101393.63
2022-10-20T15:19:24.382Z,101400.34
2022-10-20T15:22:09.855Z,101388.41
2022-10-20T15:24:38.041Z,101386.00
2022-10-20T15:27:15.720Z,101385.56
2022-10-20T15:29:52.324Z,101383.56
2022-10-20T15:32:19.670Z,101387.50
2022-10-20T15:34:46.962Z,101384.28
2022-10-20T15:37:14.329Z,101375.94
2022-10-20T15:39:41.606Z,101384.19
2022-10-20T15:42:11.991Z,101385.28
2022-10-20T15:44:39.435Z,101386.13
2022-10-20T15:47:08.497Z,101374.53
2022-10-20T15:49:35.808Z,101385.97
2022-10-20T15:52:03.766Z,101380.38
2022-10-20T15:54:31.132Z,101375.53
2022-10-20T15:56:58.480Z,101370.66
2022-10-20T15:59:25.958Z,101369.78
2022-10-20T16:01:53.354Z,101367.75
2022-10-20T16:04:23.689Z,101369.28
2022-10-20T16:06:57.753Z,101377.22
2022-10-20T16:09:26.585Z,101372.38
2022-10-20T16:11:54.005Z,101378.69
2022-10-20T16:14:21.291Z,101382.09
2022-10-20T16:16:48.852Z,101388.69
2022-10-20T16:19:16.278Z,101394.19
2022-10-20T16:21:43.613Z,101387.44
2022-10-20T16:24:11.563Z,101388.56
2022-10-20T16:26:38.942Z,101395.59
2022-10-20T16:29:06.269Z,101390.06
2022-10-20T16:31:33.607Z,101388.75
2022-10-20T16:34:00.978Z,101388.22
2022-10-20T16:36:28.329Z,101382.19
2022-10-20T16:38:58.267Z,101386.13
2022-10-20T16:41:25.655Z,101388.50
2022-10-20T16:43:55.233Z,101390.00
2022-10-20T16:46:24.886Z,101391.19
2022-10-20T16:48:52.289Z,101383.66
2022-10-20T16:51:19.735Z,101387.94
2022-10-20T16:53:47.054Z,101382.31
2022-10-20T16:56:16.908Z,101382.19
2022-10-20T16:58:47.676Z,101383.78
2022-10-20T17:01:17.579Z,101387.34
2022-10-20T17:03:49.411Z,101387.34
2022-10-20T17:06:19.357Z,101391.25
2022-10-20T17:08:46.955Z,101379.34
2022-10-20T17:11:16.940Z,101394.84
2022-10-20T17:13:44.485Z,101392.03
2022-10-20T17:16:15.313Z,101393.19
2022-10-20T17:18:43.194Z,101395.53
2022-10-20T17:21:11.993Z,101401.75
2022-10-20T17:23:42.687Z,101400.56
2022-10-20T17:26:17.511Z,101408.47
2022-10-20T17:28:45.643Z,101410.34
2022-10-20T17:33:47.446Z,101400.06
2022-10-20T17:36:15.602Z,101412.69
2022-10-20T17:38:43.267Z,101399.56
2022-10-20T17:41:13.569Z,101402.19
2022-10-20T17:43:40.980Z,101396.13
2022-10-20T17:46:14.289Z,101396.69
2022-10-20T17:48:44.028Z,101391.06
2022-10-20T17:51:17.132Z,101397.72
2022-10-20T17:53:48.059Z,101394.00
2022-10-20T17:56:18.037Z,101398.53
2022-10-20T17:58:47.682Z,101392.03
2022-10-20T18:01:27.002Z,101393.56
2022-10-20T18:03:56.890Z,101401.59
2022-10-20T18:06:29.929Z,101401.47
2022-10-20T18:09:02.104Z,101402.53
2022-10-20T18:11:32.139Z,101409.81
2022-10-20T18:14:00.553Z,101401.09
2022-10-20T18:16:30.546Z,101405.88
2022-10-20T18:21:28.123Z,101423.28
2022-10-20T18:23:56.905Z,101417.03
2022-10-20T18:26:25.512Z,101415.72
2022-10-20T18:28:52.814Z,101427.03
2022-10-20T18:31:25.171Z,101430.13
2022-10-20T18:34:02.560Z,101421.53
2022-10-20T18:36:38.072Z,101417.91
2022-10-20T18:39:08.341Z,101421.81
2022-10-20T18:41:39.069Z,101422.63
2022-10-20T18:44:10.225Z,101411.66
2022-10-20T18:46:38.169Z,101410.69
2022-10-20T18:49:07.366Z,101421.31
2022-10-20T18:51:36.108Z,101416.81
2022-10-20T18:54:05.139Z,101420.53
2022-10-20T18:56:32.784Z,101422.03
2022-10-20T18:59:03.190Z,101423.69
2022-10-20T19:01:33.827Z,101421.25
2022-10-20T19:04:02.200Z,101420.56
2022-10-20T19:06:39.856Z,101412.44
2022-10-20T19:09:14.386Z,101414.25
2022-10-20T19:11:42.058Z,101408.91
2022-10-20T19:14:11.987Z,101411.19
2022-10-20T19:16:41.482Z,101404.53
2022-10-20T19:19:09.359Z,101400.13
2022-10-20T19:21:37.042Z,101392.91
2022-10-20T19:24:07.694Z,101395.16
2022-10-20T19:26:38.611Z,101390.09
2022-10-20T19:29:09.933Z,101391.31
2022-10-20T19:31:53.362Z,101393.47
2022-10-20T19:34:27.189Z,101389.28
2022-10-20T19:36:55.517Z,101392.03
2022-10-20T19:39:27.432Z,101390.75
2022-10-20T19:41:57.552Z,101394.66
2022-10-20T19:44:26.339Z,101407.59
2022-10-20T19:46:53.861Z,101408.00
2022-10-20T19:49:23.488Z,101411.63
2022-10-20T19:51:51.375Z,101413.34
2022-10-20T19:54:19.610Z,101413.78
2022-10-20T19:56:47.173Z,101420.47
2022-10-20T19:59:33.192Z,101422.28
2022-10-20T20:02:01.019Z,101424.25
2022-10-20T20:04:28.512Z,101413.72
2022-10-20T20:07:01.044Z,101415.97
2022-10-20T20:09:30.155Z,101411.19
2022-10-20T20:11:58.177Z,101413.94
2022-10-20T20:14:26.220Z,101407.13
2022-10-20T20:16:53.577Z,101414.09
2022-10-20T20:19:20.979Z,101421.47
2022-10-20T20:21:48.374Z,101421.56
2022-10-20T20:24:15.831Z,101436.28
2022-10-20T20:26:44.724Z,101424.38
2022-10-20T20:29:13.270Z,101434.34
2022-10-20T20:31:40.634Z,101432.38
2022-10-20T20:34:08.024Z,101424.91
2022-10-20T20:36:35.389Z,101426.59
2022-10-20T20:39:03.185Z,101436.47
2022-10-20T20:41:31.197Z,101429.47
2022-10-20T20:44:01.024Z,101431.41
2022-10-20T20:46:31.084Z,101422.34
2022-10-20T20:49:00.184Z,101428.22
2022-10-20T20:51:29.069Z,101430.81
2022-10-20T20:53:56.331Z,101433.03
2022-10-20T20:56:26.851Z,101441.13
2022-10-20T20:58:55.271Z,101434.81
2022-10-20T21:01:24.417Z,101436.22
2022-10-20T21:03:56.162Z,101436.94
2022-10-20T21:06:33.123Z,101447.88
2022-10-20T21:09:01.581Z,101447.50
2022-10-20T21:11:29.205Z,101443.88
2022-10-20T21:13:58.773Z,101446.69
2022-10-20T21:16:31.853Z,101457.81
2022-10-20T21:19:04.739Z,101453.63
2022-10-20T21:21:38.125Z,101456.22
2022-10-20T21:24:06.683Z,101447.31
2022-10-20T21:26:34.040Z,101448.00
2022-10-20T21:29:01.548Z,101448.22
2022-10-20T21:31:30.196Z,101451.56
2022-10-20T21:34:03.781Z,101453.16
2022-10-20T21:36:34.671Z,101441.44
2022-10-20T21:39:05.191Z,101447.47
2022-10-20T21:41:35.256Z,101423.59
2022-10-20T21:44:04.789Z,101436.38
2022-10-20T21:46:42.067Z,101445.94
2022-10-20T21:49:20.780Z,101441.56
2022-10-20T21:51:52.301Z,101435.19
2022-10-20T21:56:55.182Z,101426.44
2022-10-20T21:59:30.382Z,101425.72
2022-10-20T22:01:59.986Z,101424.56
2022-10-20T22:04:30.851Z,101432.28
2022-10-20T22:06:59.441Z,101426.66
2022-10-20T22:09:27.088Z,101415.44
2022-10-20T22:11:56.633Z,101410.03
2022-10-20T22:14:24.149Z,101406.47
2022-10-20T22:16:51.914Z,101413.28
2022-10-20T22:19:22.560Z,101409.72
2022-10-20T22:21:51.626Z,101419.91
2022-10-20T22:24:20.721Z,101417.16
2022-10-20T22:26:51.430Z,101410.06
2022-10-20T22:29:21.080Z,101409.63
2022-10-20T22:31:48.655Z,101411.13
2022-10-20T22:34:16.191Z,101413.97
2022-10-20T22:36:44.457Z,101404.78
2022-10-20T22:41:44.842Z,101408.38
2022-10-20T22:44:12.183Z,101404.00
2022-10-20T22:46:39.506Z,101396.91
2022-10-20T22:49:06.908Z,101398.50
2022-10-20T22:51:34.233Z,101389.09
2022-10-20T22:54:01.611Z,101387.50
2022-10-20T22:56:28.948Z,101392.50
2022-10-20T22:58:56.390Z,101397.91
2022-10-20T23:01:24.323Z,101386.44
2022-10-20T23:03:52.545Z,101384.31
2022-10-20T23:06:23.221Z,101399.56
2022-10-20T23:08:53.662Z,101394.53
2022-10-20T23:11:21.836Z,101390.16
2022-10-20T23:14:05.603Z,101388.41
2022-10-20T23:16:33.009Z,101388.41
2022-10-20T23:19:00.488Z,101389.09
2022-10-20T23:21:27.904Z,101388.00
2022-10-20T23:23:55.193Z,101379.81
2022-10-20T23:26:22.635Z,101379.22
2022-10-20T23:28:50.067Z,101376.78
2022-10-20T23:31:21.752Z,101371.81
2022-10-20T23:33:54.314Z,101372.44
2022-10-20T23:36:22.502Z,101363.63
2022-10-20T23:38:50.048Z,101361.81
2022-10-20T23:41:17.423Z,101370.34
2022-10-20T23:43:44.942Z,101371.22
2022-10-20T23:46:12.431Z,101364.44
2022-10-20T23:48:40.210Z,101368.63
2022-10-20T23:51:08.193Z,101370.50
2022-10-20T23:53:35.820Z,101380.81
2022-10-20T23:56:03.858Z,101377.78
2022-10-20T23:58:31.258Z,101383.00
